sensor_id;sensor_type;location;lat;lon;timestamp;pressure;altitude;pressure_sealevel;temperature;humidity
47522;BME280;32291;52.010;4.446;2023-04-07T00:00:05;78923.47;;;-144.67;100.00
47522;BME280;32291;52.010;4.446;2023-04-07T00:01:07;78938.44;;;-144.67;100.00
47522;BME280;32291;52.010;4.446;2023-04-07T00:02:09;78932.03;;;-144.67;100.00
47522;BME280;32291;52.010;4.446;2023-04-07T00:03:11;78925.59;;;-144.67;100.00
47522;BME280;32291;52.010;4.446;2023-04-07T00:04:13;78942.72;;;-144.67;100.00
47522;BME280;32291;52.010;4.446;2023-04-07T00:05:15;78938.44;;;-144.67;100.00
47522;BME280;32291;52.010;4.446;2023-04-07T00:06:17;78942.72;;;-144.67;100.00
47522;BME280;32291;52.010;4.446;2023-04-07T00:07:19;78949.16;;;-144.67;100.00
47522;BME280;32291;52.010;4.446;2023-04-07T00:08:20;78947.03;;;-144.67;100.00
47522;BME280;32291;52.010;4.446;2023-04-07T00:09:22;78947.03;;;-144.67;100.00
47522;BME280;32291;52.010;4.446;2023-04-07T00:10:24;78951.31;;;-144.67;100.00
47522;BME280;32291;52.010;4.446;2023-04-07T00:11:26;78951.31;;;-144.67;100.00
47522;BME280;32291;52.010;4.446;2023-04-07T00:12:28;78957.72;;;-144.67;100.00
47522;BME280;32291;52.010;4.446;2023-04-07T00:13:29;78959.88;;;-144.67;100.00
47522;BME280;32291;52.010;4.446;2023-04-07T00:14:31;78959.88;;;-144.67;100.00
47522;BME280;32291;52.010;4.446;2023-04-07T00:15:33;78962.00;;;-144.67;100.00
47522;BME280;32291;52.010;4.446;2023-04-07T00:16:34;78964.16;;;-144.67;100.00
47522;BME280;32291;52.010;4.446;2023-04-07T00:17:36;78977.00;;;-144.67;100.00
47522;BME280;32291;52.010;4.446;2023-04-07T00:18:38;78968.44;;;-144.67;100.00
47522;BME280;32291;52.010;4.446;2023-04-07T00:19:39;78970.56;;;-144.67;100.00
47522;BME280;32291;52.010;4.446;2023-04-07T00:20:41;78972.72;;;-144.67;100.00
47522;BME280;32291;52.010;4.446;2023-04-07T00:21:42;78972.72;;;-144.67;100.00
47522;BME280;32291;52.010;4.446;2023-04-07T00:22:44;78981.28;;;-144.67;100.00
47522;BME280;32291;52.010;4.446;2023-04-07T00:23:46;78974.84;;;-144.67;100.00
47522;BME280;32291;52.010;4.446;2023-04-07T00:24:49;78985.56;;;-144.67;100.00
47522;BME280;32291;52.010;4.446;2023-04-07T00:25:51;78972.72;;;-144.67;100.00
47522;BME280;32291;52.010;4.446;2023-04-07T00:26:53;78989.84;;;-144.67;100.00
47522;BME280;32291;52.010;4.446;2023-04-07T00:27:55;78998.41;;;-144.67;100.00
47522;BME280;32291;52.010;4.446;2023-04-07T00:28:58;79000.56;;;-144.67;100.00
47522;BME280;32291;52.010;4.446;2023-04-07T00:30:00;79002.69;;;-144.67;100.00
47522;BME280;32291;52.010;4.446;2023-04-07T00:31:02;79006.97;;;-144.67;100.00
47522;BME280;32291;52.010;4.446;2023-04-07T00:32:04;79015.53;;;-144.67;100.00
47522;BME280;32291;52.010;4.446;2023-04-07T00:33:06;79015.53;;;-144.67;100.00
47522;BME280;32291;52.010;4.446;2023-04-07T00:34:08;79019.81;;;-144.67;100.00
47522;BME280;32291;52.010;4.446;2023-04-07T00:35:09;79024.09;;;-144.67;100.00
47522;BME280;32291;52.010;4.446;2023-04-07T00:36:11;79026.25;;;-144.67;100.00
47522;BME280;32291;52.010;4.446;2023-04-07T00:37:13;79017.69;;;-144.67;100.00
47522;BME280;32291;52.010;4.446;2023-04-07T00:38:14;79015.53;;;-144.67;100.00
47522;BME280;32291;52.010;4.446;2023-04-07T00:39:19;79019.81;;;-144.67;100.00
47522;BME280;32291;52.010;4.446;2023-04-07T00:40:21;79028.38;;;-144.67;100.00
47522;BME280;32291;52.010;4.446;2023-04-07T00:41:26;79036.97;;;-144.67;100.00
47522;BME280;32291;52.010;4.446;2023-04-07T00:42:27;79032.69;;;-144.67;100.00
47522;BME280;32291;52.010;4.446;2023-04-07T00:43:29;79041.25;;;-144.67;100.00
47522;BME280;32291;52.010;4.446;2023-04-07T00:44:30;79032.69;;;-144.67;100.00
47522;BME280;32291;52.010;4.446;2023-04-07T00:45:33;79032.69;;;-144.67;100.00
47522;BME280;32291;52.010;4.446;2023-04-07T00:46:34;79036.97;;;-144.67;100.00
47522;BME280;32291;52.010;4.446;2023-04-07T00:47:36;79028.38;;;-144.67;100.00
47522;BME280;32291;52.010;4.446;2023-04-07T00:48:38;79036.97;;;-144.67;100.00
47522;BME280;32291;52.010;4.446;2023-04-07T00:49:39;79041.25;;;-144.67;100.00
47522;BME280;32291;52.010;4.446;2023-04-07T00:50:41;79041.25;;;-144.67;100.00
47522;BME280;32291;52.010;4.446;2023-04-07T00:51:44;79036.97;;;-144.67;100.00
47522;BME280;32291;52.010;4.446;2023-04-07T00:52:47;79034.81;;;-144.67;100.00
47522;BME280;32291;52.010;4.446;2023-04-07T00:53:49;79041.25;;;-144.67;100.00
47522;BME280;32291;52.010;4.446;2023-04-07T00:54:51;79049.81;;;-144.67;100.00
47522;BME280;32291;52.010;4.446;2023-04-07T00:55:54;79062.66;;;-144.67;100.00
47522;BME280;32291;52.010;4.446;2023-04-07T00:56:56;79071.22;;;-144.67;100.00
47522;BME280;32291;52.010;4.446;2023-04-07T00:57:58;79075.50;;;-144.67;100.00
47522;BME280;32291;52.010;4.446;2023-04-07T00:59:01;79071.22;;;-144.67;100.00
47522;BME280;32291;52.010;4.446;2023-04-07T01:00:05;79077.66;;;-144.67;100.00
47522;BME280;32291;52.010;4.446;2023-04-07T01:01:14;79079.78;;;-144.67;100.00
47522;BME280;32291;52.010;4.446;2023-04-07T01:03:57;79077.66;;;-144.67;100.00
47522;BME280;32291;52.010;4.446;2023-04-07T01:05:23;79058.38;;;-144.67;100.00
47522;BME280;32291;52.010;4.446;2023-04-07T01:06:32;79064.78;;;-144.67;100.00
47522;BME280;32291;52.010;4.446;2023-04-07T01:09:40;79073.34;;;-144.67;100.00
47522;BME280;32291;52.010;4.446;2023-04-07T01:11:03;79079.78;;;-144.67;100.00
47522;BME280;32291;52.010;4.446;2023-04-07T01:13:52;79075.50;;;-144.67;100.00
47522;BME280;32291;52.010;4.446;2023-04-07T01:14:59;79075.50;;;-144.67;100.00
47522;BME280;32291;52.010;4.446;2023-04-07T01:16:12;79075.50;;;-144.67;100.00
47522;BME280;32291;52.010;4.446;2023-04-07T01:17:18;79084.06;;;-144.67;100.00
47522;BME280;32291;52.010;4.446;2023-04-07T01:18:28;79094.78;;;-144.67;100.00
47522;BME280;32291;52.010;4.446;2023-04-07T01:20:02;79081.94;;;-144.67;100.00
47522;BME280;32291;52.010;4.446;2023-04-07T01:21:14;79088.34;;;-144.67;100.00
47522;BME280;32291;52.010;4.446;2023-04-07T01:22:26;79092.63;;;-144.67;100.00
47522;BME280;32291;52.010;4.446;2023-04-07T01:24:26;79079.78;;;-144.67;100.00
47522;BME280;32291;52.010;4.446;2023-04-07T01:27:24;79066.94;;;-144.67;100.00
47522;BME280;32291;52.010;4.446;2023-04-07T01:28:56;79056.22;;;-144.67;100.00
47522;BME280;32291;52.010;4.446;2023-04-07T01:30:09;79047.66;;;-144.67;100.00
47522;BME280;32291;52.010;4.446;2023-04-07T01:31:14;79041.25;;;-144.67;100.00
47522;BME280;32291;52.010;4.446;2023-04-07T01:32:18;79043.38;;;-144.67;100.00
47522;BME280;32291;52.010;4.446;2023-04-07T01:33:29;79049.81;;;-144.67;100.00
47522;BME280;32291;52.010;4.446;2023-04-07T01:34:34;79047.66;;;-144.67;100.00
47522;BME280;32291;52.010;4.446;2023-04-07T01:35:38;79049.81;;;-144.67;100.00
47522;BME280;32291;52.010;4.446;2023-04-07T01:36:42;79045.53;;;-144.67;100.00
47522;BME280;32291;52.010;4.446;2023-04-07T01:37:47;79041.25;;;-144.67;100.00
47522;BME280;32291;52.010;4.446;2023-04-07T01:38:51;79036.97;;;-144.67;100.00
47522;BME280;32291;52.010;4.446;2023-04-07T01:39:53;79032.69;;;-144.67;100.00
47522;BME280;32291;52.010;4.446;2023-04-07T01:40:56;79034.81;;;-144.67;100.00
47522;BME280;32291;52.010;4.446;2023-04-07T01:42:03;79041.25;;;-144.67;100.00
47522;BME280;32291;52.010;4.446;2023-04-07T01:43:06;79054.09;;;-144.67;100.00
47522;BME280;32291;52.010;4.446;2023-04-07T01:44:09;79066.94;;;-144.67;100.00
47522;BME280;32291;52.010;4.446;2023-04-07T01:45:13;79066.94;;;-144.67;100.00
47522;BME280;32291;52.010;4.446;2023-04-07T01:46:16;79058.38;;;-144.67;100.00
47522;BME280;32291;52.010;4.446;2023-04-07T01:47:18;79049.81;;;-144.67;100.00
47522;BME280;32291;52.010;4.446;2023-04-07T01:48:20;79047.66;;;-144.67;100.00
47522;BME280;32291;52.010;4.446;2023-04-07T01:49:24;79043.38;;;-144.67;100.00
47522;BME280;32291;52.010;4.446;2023-04-07T01:50:28;79045.53;;;-144.67;100.00
47522;BME280;32291;52.010;4.446;2023-04-07T01:51:32;79049.81;;;-144.67;100.00
47522;BME280;32291;52.010;4.446;2023-04-07T01:52:36;79039.09;;;-144.67;100.00
47522;BME280;32291;52.010;4.446;2023-04-07T01:53:38;79028.38;;;-144.67;100.00
47522;BME280;32291;52.010;4.446;2023-04-07T01:54:41;79024.09;;;-144.67;100.00
47522;BME280;32291;52.010;4.446;2023-04-07T01:55:44;79019.81;;;-144.67;100.00
47522;BME280;32291;52.010;4.446;2023-04-07T01:56:46;79017.69;;;-144.67;100.00
47522;BME280;32291;52.010;4.446;2023-04-07T01:57:48;79013.41;;;-144.67;100.00
47522;BME280;32291;52.010;4.446;2023-04-07T01:58:50;79015.53;;;-144.67;100.00
47522;BME280;32291;52.010;4.446;2023-04-07T01:59:52;79021.97;;;-144.67;100.00
47522;BME280;32291;52.010;4.446;2023-04-07T02:00:54;79021.97;;;-144.67;100.00
47522;BME280;32291;52.010;4.446;2023-04-07T02:01:56;79015.53;;;-144.67;100.00
47522;BME280;32291;52.010;4.446;2023-04-07T02:03:09;79015.53;;;-144.67;100.00
47522;BME280;32291;52.010;4.446;2023-04-07T02:05:21;79017.69;;;-144.67;100.00
47522;BME280;32291;52.010;4.446;2023-04-07T02:06:34;79024.09;;;-144.67;100.00
47522;BME280;32291;52.010;4.446;2023-04-07T02:08:03;79026.25;;;-144.67;100.00
47522;BME280;32291;52.010;4.446;2023-04-07T02:09:09;79019.81;;;-144.67;100.00
47522;BME280;32291;52.010;4.446;2023-04-07T02:10:15;79019.81;;;-144.67;100.00
47522;BME280;32291;52.010;4.446;2023-04-07T02:11:20;79011.25;;;-144.67;100.00
47522;BME280;32291;52.010;4.446;2023-04-07T02:12:25;79015.53;;;-144.67;100.00
47522;BME280;32291;52.010;4.446;2023-04-07T02:13:29;79011.25;;;-144.67;100.00
47522;BME280;32291;52.010;4.446;2023-04-07T02:14:32;79011.25;;;-144.67;100.00
47522;BME280;32291;52.010;4.446;2023-04-07T02:15:38;79006.97;;;-144.67;100.00
47522;BME280;32291;52.010;4.446;2023-04-07T02:16:42;79009.13;;;-144.67;100.00
47522;BME280;32291;52.010;4.446;2023-04-07T02:17:50;79011.25;;;-144.67;100.00
47522;BME280;32291;52.010;4.446;2023-04-07T02:18:53;79013.41;;;-144.67;100.00
47522;BME280;32291;52.010;4.446;2023-04-07T02:19:57;79017.69;;;-144.67;100.00
47522;BME280;32291;52.010;4.446;2023-04-07T02:21:01;79019.81;;;-144.67;100.00
47522;BME280;32291;52.010;4.446;2023-04-07T02:22:05;79026.25;;;-144.67;100.00
47522;BME280;32291;52.010;4.446;2023-04-07T02:23:07;79036.97;;;-144.67;100.00
47522;BME280;32291;52.010;4.446;2023-04-07T02:24:11;79045.53;;;-144.67;100.00
47522;BME280;32291;52.010;4.446;2023-04-07T02:25:24;79054.09;;;-144.67;100.00
47522;BME280;32291;52.010;4.446;2023-04-07T02:26:26;79062.66;;;-144.67;100.00
47522;BME280;32291;52.010;4.446;2023-04-07T02:27:28;79058.38;;;-144.67;100.00
47522;BME280;32291;52.010;4.446;2023-04-07T02:28:30;79069.06;;;-144.67;100.00
47522;BME280;32291;52.010;4.446;2023-04-07T02:29:32;79075.50;;;-144.67;100.00
47522;BME280;32291;52.010;4.446;2023-04-07T02:30:35;79077.66;;;-144.67;100.00
47522;BME280;32291;52.010;4.446;2023-04-07T02:31:36;79079.78;;;-144.67;100.00
47522;BME280;32291;52.010;4.446;2023-04-07T02:32:38;79084.06;;;-144.67;100.00
47522;BME280;32291;52.010;4.446;2023-04-07T02:33:40;79077.66;;;-144.67;100.00
47522;BME280;32291;52.010;4.446;2023-04-07T02:34:42;79077.66;;;-144.67;100.00
47522;BME280;32291;52.010;4.446;2023-04-07T02:35:44;79073.34;;;-144.67;100.00
47522;BME280;32291;52.010;4.446;2023-04-07T02:36:46;79066.94;;;-144.67;100.00
47522;BME280;32291;52.010;4.446;2023-04-07T02:37:49;79062.66;;;-144.67;100.00
47522;BME280;32291;52.010;4.446;2023-04-07T02:38:51;79058.38;;;-144.67;100.00
47522;BME280;32291;52.010;4.446;2023-04-07T02:39:52;79049.81;;;-144.67;100.00
47522;BME280;32291;52.010;4.446;2023-04-07T02:40:55;79034.81;;;-144.67;100.00
47522;BME280;32291;52.010;4.446;2023-04-07T02:41:56;79019.81;;;-144.67;100.00
47522;BME280;32291;52.010;4.446;2023-04-07T02:42:59;79017.69;;;-144.67;100.00
47522;BME280;32291;52.010;4.446;2023-04-07T02:44:00;79019.81;;;-144.67;100.00
47522;BME280;32291;52.010;4.446;2023-04-07T02:45:05;79015.53;;;-144.67;100.00
47522;BME280;32291;52.010;4.446;2023-04-07T02:46:07;79004.84;;;-144.67;100.00
47522;BME280;32291;52.010;4.446;2023-04-07T02:47:09;79011.25;;;-144.67;100.00
47522;BME280;32291;52.010;4.446;2023-04-07T02:48:11;78996.25;;;-144.67;100.00
47522;BME280;32291;52.010;4.446;2023-04-07T02:49:13;78996.25;;;-144.67;100.00
47522;BME280;32291;52.010;4.446;2023-04-07T02:50:14;78991.97;;;-144.67;100.00
47522;BME280;32291;52.010;4.446;2023-04-07T02:51:16;78989.84;;;-144.67;100.00
47522;BME280;32291;52.010;4.446;2023-04-07T02:52:18;78989.84;;;-144.67;100.00
47522;BME280;32291;52.010;4.446;2023-04-07T02:53:19;78977.00;;;-144.67;100.00
47522;BME280;32291;52.010;4.446;2023-04-07T02:54:21;78979.13;;;-144.67;100.00
47522;BME280;32291;52.010;4.446;2023-04-07T02:55:23;78981.28;;;-144.67;100.00
47522;BME280;32291;52.010;4.446;2023-04-07T02:56:24;78972.72;;;-144.67;100.00
47522;BME280;32291;52.010;4.446;2023-04-07T02:57:26;78959.88;;;-144.67;100.00
47522;BME280;32291;52.010;4.446;2023-04-07T02:58:27;78951.31;;;-144.67;100.00
47522;BME280;32291;52.010;4.446;2023-04-07T02:59:29;78949.16;;;-144.67;100.00
47522;BME280;32291;52.010;4.446;2023-04-07T03:00:33;78951.31;;;-144.67;100.00
47522;BME280;32291;52.010;4.446;2023-04-07T03:01:35;78959.88;;;-144.67;100.00
47522;BME280;32291;52.010;4.446;2023-04-07T03:02:37;78955.59;;;-144.67;100.00
47522;BME280;32291;52.010;4.446;2023-04-07T03:03:38;78959.88;;;-144.67;100.00
47522;BME280;32291;52.010;4.446;2023-04-07T03:04:42;78955.59;;;-144.67;100.00
47522;BME280;32291;52.010;4.446;2023-04-07T03:05:44;78947.03;;;-144.67;100.00
47522;BME280;32291;52.010;4.446;2023-04-07T03:06:46;78957.72;;;-144.67;100.00
47522;BME280;32291;52.010;4.446;2023-04-07T03:07:48;78957.72;;;-144.67;100.00
47522;BME280;32291;52.010;4.446;2023-04-07T03:08:50;78964.16;;;-144.67;100.00
47522;BME280;32291;52.010;4.446;2023-04-07T03:09:52;78955.59;;;-144.67;100.00
47522;BME280;32291;52.010;4.446;2023-04-07T03:10:53;78962.00;;;-144.67;100.00
47522;BME280;32291;52.010;4.446;2023-04-07T03:11:56;78951.31;;;-144.67;100.00
47522;BME280;32291;52.010;4.446;2023-04-07T03:12:58;78951.31;;;-144.67;100.00
47522;BME280;32291;52.010;4.446;2023-04-07T03:14:01;78955.59;;;-144.67;100.00
47522;BME280;32291;52.010;4.446;2023-04-07T03:15:03;78964.16;;;-144.67;100.00
47522;BME280;32291;52.010;4.446;2023-04-07T03:16:05;78951.31;;;-144.67;100.00
47522;BME280;32291;52.010;4.446;2023-04-07T03:17:07;78944.88;;;-144.67;100.00
47522;BME280;32291;52.010;4.446;2023-04-07T03:18:09;78955.59;;;-144.67;100.00
47522;BME280;32291;52.010;4.446;2023-04-07T03:19:11;78951.31;;;-144.67;100.00
47522;BME280;32291;52.010;4.446;2023-04-07T03:20:13;78957.72;;;-144.67;100.00
47522;BME280;32291;52.010;4.446;2023-04-07T03:21:15;78959.88;;;-144.67;100.00
47522;BME280;32291;52.010;4.446;2023-04-07T03:22:16;78942.72;;;-144.67;100.00
47522;BME280;32291;52.010;4.446;2023-04-07T03:23:18;78947.03;;;-144.67;100.00
47522;BME280;32291;52.010;4.446;2023-04-07T03:24:20;78940.59;;;-144.67;100.00
47522;BME280;32291;52.010;4.446;2023-04-07T03:25:22;78936.31;;;-144.67;100.00
47522;BME280;32291;52.010;4.446;2023-04-07T03:26:24;78942.72;;;-144.67;100.00
47522;BME280;32291;52.010;4.446;2023-04-07T03:27:26;78940.59;;;-144.67;100.00
47522;BME280;32291;52.010;4.446;2023-04-07T03:28:28;78949.16;;;-144.67;100.00
47522;BME280;32291;52.010;4.446;2023-04-07T03:29:29;78942.72;;;-144.67;100.00
47522;BME280;32291;52.010;4.446;2023-04-07T03:30:32;78936.31;;;-144.67;100.00
47522;BME280;32291;52.010;4.446;2023-04-07T03:31:34;78929.88;;;-144.67;100.00
47522;BME280;32291;52.010;4.446;2023-04-07T03:32:37;78944.88;;;-144.67;100.00
47522;BME280;32291;52.010;4.446;2023-04-07T03:33:39;78947.03;;;-144.67;100.00
47522;BME280;32291;52.010;4.446;2023-04-07T03:34:41;78959.88;;;-144.67;100.00
47522;BME280;32291;52.010;4.446;2023-04-07T03:35:43;78949.16;;;-144.67;100.00
47522;BME280;32291;52.010;4.446;2023-04-07T03:36:44;78932.03;;;-144.67;100.00
47522;BME280;32291;52.010;4.446;2023-04-07T03:37:46;78940.59;;;-144.67;100.00
47522;BME280;32291;52.010;4.446;2023-04-07T03:38:47;78947.03;;;-144.67;100.00
47522;BME280;32291;52.010;4.446;2023-04-07T03:39:49;78947.03;;;-144.67;100.00
47522;BME280;32291;52.010;4.446;2023-04-07T03:40:51;78955.59;;;-144.67;100.00
47522;BME280;32291;52.010;4.446;2023-04-07T03:41:53;78955.59;;;-144.67;100.00
47522;BME280;32291;52.010;4.446;2023-04-07T03:42:55;78951.31;;;-144.67;100.00
47522;BME280;32291;52.010;4.446;2023-04-07T03:43:56;78949.16;;;-144.67;100.00
47522;BME280;32291;52.010;4.446;2023-04-07T03:44:58;78949.16;;;-144.67;100.00
47522;BME280;32291;52.010;4.446;2023-04-07T03:46:00;78936.31;;;-144.67;100.00
47522;BME280;32291;52.010;4.446;2023-04-07T03:47:02;78934.16;;;-144.67;100.00
47522;BME280;32291;52.010;4.446;2023-04-07T03:48:04;78942.72;;;-144.67;100.00
47522;BME280;32291;52.010;4.446;2023-04-07T03:49:06;78942.72;;;-144.67;100.00
47522;BME280;32291;52.010;4.446;2023-04-07T03:50:09;78947.03;;;-144.67;100.00
47522;BME280;32291;52.010;4.446;2023-04-07T03:51:11;78934.16;;;-144.67;100.00
47522;BME280;32291;52.010;4.446;2023-04-07T03:52:12;78938.44;;;-144.67;100.00
47522;BME280;32291;52.010;4.446;2023-04-07T03:53:14;78947.03;;;-144.67;100.00
47522;BME280;32291;52.010;4.446;2023-04-07T03:54:17;78947.03;;;-144.67;100.00
47522;BME280;32291;52.010;4.446;2023-04-07T03:55:18;78942.72;;;-144.67;100.00
47522;BME280;32291;52.010;4.446;2023-04-07T03:56:20;78934.16;;;-144.67;100.00
47522;BME280;32291;52.010;4.446;2023-04-07T03:57:22;78942.72;;;-144.67;100.00
47522;BME280;32291;52.010;4.446;2023-04-07T03:58:24;78947.03;;;-144.67;100.00
47522;BME280;32291;52.010;4.446;2023-04-07T03:59:26;78951.31;;;-144.67;100.00
47522;BME280;32291;52.010;4.446;2023-04-07T04:00:28;78949.16;;;-144.67;100.00
47522;BME280;32291;52.010;4.446;2023-04-07T04:01:32;78936.31;;;-144.67;100.00
47522;BME280;32291;52.010;4.446;2023-04-07T04:02:33;78932.03;;;-144.67;100.00
47522;BME280;32291;52.010;4.446;2023-04-07T04:03:35;78938.44;;;-144.67;100.00
47522;BME280;32291;52.010;4.446;2023-04-07T04:04:36;78934.16;;;-144.67;100.00
47522;BME280;32291;52.010;4.446;2023-04-07T04:05:38;78929.88;;;-144.67;100.00
47522;BME280;32291;52.010;4.446;2023-04-07T04:06:41;78921.31;;;-144.67;100.00
47522;BME280;32291;52.010;4.446;2023-04-07T04:07:43;78919.19;;;-144.67;100.00
47522;BME280;32291;52.010;4.446;2023-04-07T04:08:45;78917.03;;;-144.67;100.00
47522;BME280;32291;52.010;4.446;2023-04-07T04:09:47;78912.75;;;-144.67;100.00
47522;BME280;32291;52.010;4.446;2023-04-07T04:10:49;78904.19;;;-144.67;100.00
47522;BME280;32291;52.010;4.446;2023-04-07T04:11:50;78899.91;;;-144.67;100.00
47522;BME280;32291;52.010;4.446;2023-04-07T04:12:52;78899.91;;;-144.67;100.00
47522;BME280;32291;52.010;4.446;2023-04-07T04:13:54;78908.47;;;-144.67;100.00
47522;BME280;32291;52.010;4.446;2023-04-07T04:14:56;78910.63;;;-144.67;100.00
47522;BME280;32291;52.010;4.446;2023-04-07T04:15:58;78925.59;;;-144.67;100.00
47522;BME280;32291;52.010;4.446;2023-04-07T04:17:00;78919.19;;;-144.67;100.00
47522;BME280;32291;52.010;4.446;2023-04-07T04:18:02;78917.03;;;-144.67;100.00
47522;BME280;32291;52.010;4.446;2023-04-07T04:19:04;78921.31;;;-144.67;100.00
47522;BME280;32291;52.010;4.446;2023-04-07T04:20:07;78921.31;;;-144.67;100.00
47522;BME280;32291;52.010;4.446;2023-04-07T04:21:09;78925.59;;;-144.67;100.00
47522;BME280;32291;52.010;4.446;2023-04-07T04:22:10;78921.31;;;-144.67;100.00
47522;BME280;32291;52.010;4.446;2023-04-07T04:23:12;78912.75;;;-144.67;100.00
47522;BME280;32291;52.010;4.446;2023-04-07T04:24:14;78932.03;;;-144.67;100.00
47522;BME280;32291;52.010;4.446;2023-04-07T04:25:16;78938.44;;;-144.67;100.00
47522;BME280;32291;52.010;4.446;2023-04-07T04:26:18;78936.31;;;-144.67;100.00
47522;BME280;32291;52.010;4.446;2023-04-07T04:27:19;78934.16;;;-144.67;100.00
47522;BME280;32291;52.010;4.446;2023-04-07T04:28:22;78936.31;;;-144.67;100.00
47522;BME280;32291;52.010;4.446;2023-04-07T04:29:24;78934.16;;;-144.67;100.00
47522;BME280;32291;52.010;4.446;2023-04-07T04:30:26;78942.72;;;-144.67;100.00
47522;BME280;32291;52.010;4.446;2023-04-07T04:31:27;78940.59;;;-144.67;100.00
47522;BME280;32291;52.010;4.446;2023-04-07T04:32:29;78947.03;;;-144.67;100.00
47522;BME280;32291;52.010;4.446;2023-04-07T04:33:30;78942.72;;;-144.67;100.00
47522;BME280;32291;52.010;4.446;2023-04-07T04:34:32;78938.44;;;-144.67;100.00
47522;BME280;32291;52.010;4.446;2023-04-07T04:35:34;78938.44;;;-144.67;100.00
47522;BME280;32291;52.010;4.446;2023-04-07T04:36:37;78949.16;;;-144.67;100.00
47522;BME280;32291;52.010;4.446;2023-04-07T04:37:39;78951.31;;;-144.67;100.00
47522;BME280;32291;52.010;4.446;2023-04-07T04:38:41;78957.72;;;-144.67;100.00
47522;BME280;32291;52.010;4.446;2023-04-07T04:39:42;78951.31;;;-144.67;100.00
47522;BME280;32291;52.010;4.446;2023-04-07T04:40:44;78949.16;;;-144.67;100.00
47522;BME280;32291;52.010;4.446;2023-04-07T04:41:46;78938.44;;;-144.67;100.00
47522;BME280;32291;52.010;4.446;2023-04-07T04:42:48;78934.16;;;-144.67;100.00
47522;BME280;32291;52.010;4.446;2023-04-07T04:43:50;78934.16;;;-144.67;100.00
47522;BME280;32291;52.010;4.446;2023-04-07T04:44:51;78934.16;;;-144.67;100.00
47522;BME280;32291;52.010;4.446;2023-04-07T04:45:53;78942.72;;;-144.67;100.00
47522;BME280;32291;52.010;4.446;2023-04-07T04:46:54;78951.31;;;-144.67;100.00
47522;BME280;32291;52.010;4.446;2023-04-07T04:47:56;78944.88;;;-144.67;100.00
47522;BME280;32291;52.010;4.446;2023-04-07T04:48:58;78938.44;;;-144.67;100.00
47522;BME280;32291;52.010;4.446;2023-04-07T04:50:00;78944.88;;;-144.67;100.00
47522;BME280;32291;52.010;4.446;2023-04-07T04:51:02;78947.03;;;-144.67;100.00
47522;BME280;32291;52.010;4.446;2023-04-07T04:52:04;78951.31;;;-144.67;100.00
47522;BME280;32291;52.010;4.446;2023-04-07T04:53:05;78947.03;;;-144.67;100.00
47522;BME280;32291;52.010;4.446;2023-04-07T04:54:07;78936.31;;;-144.67;100.00
47522;BME280;32291;52.010;4.446;2023-04-07T04:55:09;78929.88;;;-144.67;100.00
47522;BME280;32291;52.010;4.446;2023-04-07T04:56:11;78929.88;;;-144.67;100.00
47522;BME280;32291;52.010;4.446;2023-04-07T04:57:13;78940.59;;;-144.67;100.00
47522;BME280;32291;52.010;4.446;2023-04-07T04:58:15;78929.88;;;-144.67;100.00
47522;BME280;32291;52.010;4.446;2023-04-07T04:59:16;78925.59;;;-144.67;100.00
47522;BME280;32291;52.010;4.446;2023-04-07T05:00:19;78938.44;;;-144.67;100.00
47522;BME280;32291;52.010;4.446;2023-04-07T05:01:21;78942.72;;;-144.67;100.00
47522;BME280;32291;52.010;4.446;2023-04-07T05:02:23;78947.03;;;-144.67;100.00
47522;BME280;32291;52.010;4.446;2023-04-07T05:03:27;78947.03;;;-144.67;100.00
47522;BME280;32291;52.010;4.446;2023-04-07T05:04:29;78940.59;;;-144.67;100.00
47522;BME280;32291;52.010;4.446;2023-04-07T05:05:31;78944.88;;;-144.67;100.00
47522;BME280;32291;52.010;4.446;2023-04-07T05:06:33;78938.44;;;-144.67;100.00
47522;BME280;32291;52.010;4.446;2023-04-07T05:07:34;78942.72;;;-144.67;100.00
47522;BME280;32291;52.010;4.446;2023-04-07T05:08:37;78947.03;;;-144.67;100.00
47522;BME280;32291;52.010;4.446;2023-04-07T05:09:38;78942.72;;;-144.67;100.00
47522;BME280;32291;52.010;4.446;2023-04-07T05:10:41;78938.44;;;-144.67;100.00
47522;BME280;32291;52.010;4.446;2023-04-07T05:11:43;78936.31;;;-144.67;100.00
47522;BME280;32291;52.010;4.446;2023-04-07T05:12:44;78934.16;;;-144.67;100.00
47522;BME280;32291;52.010;4.446;2023-04-07T05:13:48;78942.72;;;-144.67;100.00
47522;BME280;32291;52.010;4.446;2023-04-07T05:14:49;78951.31;;;-144.67;100.00
47522;BME280;32291;52.010;4.446;2023-04-07T05:15:51;78947.03;;;-144.67;100.00
47522;BME280;32291;52.010;4.446;2023-04-07T05:16:53;78953.44;;;-144.67;100.00
47522;BME280;32291;52.010;4.446;2023-04-07T05:17:54;78951.31;;;-144.67;100.00
47522;BME280;32291;52.010;4.446;2023-04-07T05:18:56;78951.31;;;-144.67;100.00
47522;BME280;32291;52.010;4.446;2023-04-07T05:19:58;78947.03;;;-144.67;100.00
47522;BME280;32291;52.010;4.446;2023-04-07T05:21:00;78951.31;;;-144.67;100.00
47522;BME280;32291;52.010;4.446;2023-04-07T05:22:04;78938.44;;;-144.67;100.00
47522;BME280;32291;52.010;4.446;2023-04-07T05:23:06;78942.72;;;-144.67;100.00
47522;BME280;32291;52.010;4.446;2023-04-07T05:24:08;78947.03;;;-144.67;100.00
47522;BME280;32291;52.010;4.446;2023-04-07T05:25:10;78940.59;;;-144.67;100.00
47522;BME280;32291;52.010;4.446;2023-04-07T05:26:12;78947.03;;;-144.67;100.00
47522;BME280;32291;52.010;4.446;2023-04-07T05:27:14;78944.88;;;-144.67;100.00
47522;BME280;32291;52.010;4.446;2023-04-07T05:28:16;78949.16;;;-144.67;100.00
47522;BME280;32291;52.010;4.446;2023-04-07T05:29:18;78938.44;;;-144.67;100.00
47522;BME280;32291;52.010;4.446;2023-04-07T05:30:20;78934.16;;;-144.67;100.00